createdAt,value
2022-11-15T00:01:10.143Z,15.71
2022-11-15T00:03:55.645Z,15.74
2022-11-15T00:06:40.849Z,15.68
2022-11-15T00:09:26.037Z,15.67
2022-11-15T00:12:11.380Z,15.65
2022-11-15T00:14:56.550Z,15.69
2022-11-15T00:17:41.607Z,15.62
2022-11-15T00:20:27.101Z,15.70
2022-11-15T00:23:12.590Z,15.69
2022-11-15T00:25:59.122Z,15.72
2022-11-15T00:28:45.005Z,15.72
2022-11-15T00:31:30.393Z,15.72
2022-11-15T00:34:15.747Z,15.89
2022-11-15T00:37:01.023Z,15.78
2022-11-15T00:39:46.543Z,15.84
2022-11-15T00:42:32.132Z,15.86
2022-11-15T00:45:17.355Z,15.86
2022-11-15T00:48:02.730Z,15.85
2022-11-15T00:50:49.038Z,15.78
2022-11-15T00:53:34.554Z,15.78
2022-11-15T00:56:19.941Z,15.70
2022-11-15T00:59:05.441Z,15.77
2022-11-15T01:01:50.603Z,15.73
2022-11-15T01:04:36.048Z,15.68
2022-11-15T01:07:21.587Z,15.71
2022-11-15T01:10:07.160Z,15.73
2022-11-15T01:12:52.904Z,15.72
2022-11-15T01:15:42.369Z,15.71
2022-11-15T01:18:27.431Z,15.73
2022-11-15T01:21:16.252Z,15.66
2022-11-15T01:24:01.942Z,15.73
2022-11-15T01:26:47.318Z,15.70
2022-11-15T01:29:32.800Z,15.74
2022-11-15T01:32:18.952Z,15.74
2022-11-15T01:35:04.654Z,15.78
2022-11-15T01:37:50.089Z,15.86
2022-11-15T01:40:35.436Z,15.93
2022-11-15T01:43:30.976Z,15.71
2022-11-15T01:46:22.359Z,15.81
2022-11-15T01:49:15.220Z,15.89
2022-11-15T01:52:03.289Z,15.88
2022-11-15T01:54:53.929Z,15.90
2022-11-15T01:57:43.444Z,15.90
2022-11-15T02:00:30.739Z,15.93
2022-11-15T02:03:16.854Z,15.88
2022-11-15T02:06:04.732Z,15.85
2022-11-15T02:08:51.086Z,15.82
2022-11-15T02:11:37.055Z,15.78
2022-11-15T02:14:26.163Z,15.75
2022-11-15T02:17:14.288Z,15.77
2022-11-15T02:20:14.429Z,15.78
2022-11-15T02:23:10.992Z,15.68
2022-11-15T02:26:20.658Z,15.69
2022-11-15T02:29:11.283Z,15.67
2022-11-15T02:32:14.765Z,15.63
2022-11-15T02:35:07.582Z,15.57
2022-11-15T02:37:58.381Z,15.59
2022-11-15T02:40:59.948Z,15.56
2022-11-15T02:43:58.571Z,15.62
2022-11-15T02:47:11.015Z,15.58
2022-11-15T02:50:02.087Z,15.60
2022-11-15T02:52:49.735Z,15.63
2022-11-15T02:55:38.166Z,15.60
2022-11-15T02:58:51.198Z,15.62
2022-11-15T03:01:54.504Z,15.63
2022-11-15T03:04:48.831Z,15.60
2022-11-15T03:07:55.857Z,15.55
2022-11-15T03:11:14.791Z,15.57
2022-11-15T03:14:09.591Z,15.58
2022-11-15T03:17:14.730Z,15.57
2022-11-15T03:20:02.479Z,15.57
2022-11-15T03:22:50.305Z,15.57
2022-11-15T03:25:41.815Z,15.58
2022-11-15T03:28:37.723Z,15.58
2022-11-15T03:31:50.062Z,15.58
2022-11-15T03:34:54.784Z,15.62
2022-11-15T03:37:47.216Z,15.56
2022-11-15T03:40:47.241Z,15.56
2022-11-15T03:43:47.769Z,15.59
2022-11-15T03:46:38.621Z,15.62
2022-11-15T03:49:32.402Z,15.61
2022-11-15T03:52:22.208Z,15.57
2022-11-15T03:55:11.530Z,15.55
2022-11-15T03:57:59.793Z,15.44
2022-11-15T04:00:45.327Z,15.32
2022-11-15T04:03:30.931Z,15.34
2022-11-15T04:06:16.610Z,15.38
2022-11-15T04:09:01.886Z,15.38
2022-11-15T04:11:47.382Z,15.43
2022-11-15T04:14:32.808Z,15.49
2022-11-15T04:17:18.078Z,15.55
2022-11-15T04:20:30.893Z,15.59
2022-11-15T04:23:36.818Z,15.62
2022-11-15T04:26:24.044Z,15.59
2022-11-15T04:29:27.592Z,15.57
2022-11-15T04:32:13.016Z,15.57
2022-11-15T04:34:58.253Z,15.60
2022-11-15T04:37:48.985Z,15.59
2022-11-15T04:40:36.069Z,15.62
2022-11-15T04:43:21.482Z,15.67
2022-11-15T04:46:06.810Z,15.65
2022-11-15T04:48:58.020Z,15.57
2022-11-15T04:51:43.800Z,15.61
2022-11-15T04:54:29.133Z,15.59
2022-11-15T04:57:15.087Z,15.46
2022-11-15T05:00:00.326Z,15.52
2022-11-15T05:03:04.372Z,15.64
2022-11-15T05:05:49.761Z,15.58
2022-11-15T05:08:35.346Z,15.61
2022-11-15T05:11:21.489Z,15.69
2022-11-15T05:14:06.584Z,15.69
2022-11-15T05:16:51.752Z,15.62
2022-11-15T05:19:37.955Z,15.45
2022-11-15T05:22:23.035Z,15.62
2022-11-15T05:25:08.592Z,15.57
2022-11-15T05:27:53.985Z,15.52
2022-11-15T05:30:39.404Z,15.55
2022-11-15T05:33:24.903Z,15.53
2022-11-15T05:36:18.585Z,15.58
2022-11-15T05:39:05.471Z,15.56
2022-11-15T05:41:55.666Z,15.51
2022-11-15T05:44:45.471Z,15.49
2022-11-15T05:47:31.583Z,15.46
2022-11-15T05:50:19.035Z,15.46
2022-11-15T05:53:05.576Z,15.39
2022-11-15T05:55:51.447Z,15.42
2022-11-15T05:58:38.110Z,15.39
2022-11-15T06:01:25.775Z,15.40
2022-11-15T06:04:11.208Z,15.44
2022-11-15T06:06:56.505Z,15.41
2022-11-15T06:09:41.955Z,15.43
2022-11-15T06:12:27.195Z,15.45
2022-11-15T06:15:12.574Z,15.45
2022-11-15T06:18:00.985Z,15.45
2022-11-15T06:20:46.082Z,15.42
2022-11-15T06:23:35.384Z,15.44
2022-11-15T06:26:20.836Z,15.49
2022-11-15T06:29:06.387Z,15.44
2022-11-15T06:31:51.526Z,15.46
2022-11-15T06:34:36.988Z,15.44
2022-11-15T06:37:22.160Z,15.46
2022-11-15T06:40:09.482Z,15.46
2022-11-15T06:43:01.710Z,15.46
2022-11-15T06:45:46.696Z,15.46
2022-11-15T06:48:33.556Z,15.38
2022-11-15T06:51:19.017Z,15.38
2022-11-15T06:54:04.136Z,15.39
2022-11-15T06:56:49.487Z,15.46
2022-11-15T06:59:39.339Z,15.48
2022-11-15T07:02:25.732Z,15.46
2022-11-15T07:05:11.981Z,15.44
2022-11-15T07:07:58.564Z,15.46
2022-11-15T07:10:43.577Z,15.47
2022-11-15T07:13:30.669Z,15.48
2022-11-15T07:16:16.474Z,15.53
2022-11-15T07:19:02.156Z,15.57
2022-11-15T07:21:47.666Z,15.63
2022-11-15T07:24:33.118Z,15.61
2022-11-15T07:27:18.830Z,15.63
2022-11-15T07:30:05.194Z,15.67
2022-11-15T07:33:01.688Z,15.70
2022-11-15T07:35:49.984Z,15.72
2022-11-15T07:38:42.215Z,15.71
2022-11-15T07:41:27.985Z,15.74
2022-11-15T07:44:13.150Z,15.71
2022-11-15T07:46:59.029Z,15.72
2022-11-15T07:49:44.408Z,15.77
2022-11-15T07:52:29.580Z,15.72
2022-11-15T07:55:14.943Z,15.71
2022-11-15T07:58:03.340Z,15.76
2022-11-15T08:00:48.900Z,15.77
2022-11-15T08:03:34.725Z,15.82
2022-11-15T08:06:20.506Z,15.92
2022-11-15T08:09:05.962Z,15.95
2022-11-15T08:11:51.228Z,16.03
2022-11-15T08:14:36.722Z,16.12
2022-11-15T08:17:21.984Z,16.11
2022-11-15T08:20:08.294Z,16.18
2022-11-15T08:22:53.483Z,16.19
2022-11-15T08:25:39.221Z,16.22
2022-11-15T08:28:24.542Z,16.21
2022-11-15T08:31:18.685Z,16.28
2022-11-15T08:34:05.496Z,16.28
2022-11-15T08:36:50.789Z,16.34
2022-11-15T08:39:35.946Z,16.48
2022-11-15T08:42:21.313Z,16.65
2022-11-15T08:45:07.863Z,16.71
2022-11-15T08:47:54.669Z,16.88
2022-11-15T08:50:40.335Z,17.02
2022-11-15T08:53:25.893Z,17.10
2022-11-15T08:56:13.175Z,17.32
2022-11-15T08:58:58.500Z,17.58
2022-11-15T09:01:43.683Z,17.55
2022-11-15T09:04:28.797Z,17.41
2022-11-15T09:07:14.763Z,17.42
2022-11-15T09:09:59.987Z,17.36
2022-11-15T09:12:45.275Z,17.26
2022-11-15T09:15:30.387Z,17.30
2022-11-15T09:18:15.597Z,17.36
2022-11-15T09:21:03.104Z,17.40
2022-11-15T09:23:51.290Z,17.49
2022-11-15T09:26:36.761Z,17.67
2022-11-15T09:29:22.261Z,17.76
2022-11-15T09:32:07.612Z,18.03
2022-11-15T09:34:54.122Z,18.17
2022-11-15T09:37:39.355Z,18.51
2022-11-15T09:40:25.454Z,18.77
2022-11-15T09:43:38.202Z,18.96
2022-11-15T09:46:46.810Z,19.42
2022-11-15T09:49:43.198Z,19.67
2022-11-15T09:52:19.433Z,19.97
2022-11-15T09:54:54.917Z,20.11
2022-11-15T09:57:44.111Z,20.03
2022-11-15T10:03:14.765Z,19.85
2022-11-15T10:05:47.184Z,19.96
2022-11-15T10:08:38.296Z,20.10
2022-11-15T10:11:36.237Z,20.06
2022-11-15T10:14:11.064Z,20.11
2022-11-15T10:17:08.948Z,20.30
2022-11-15T10:19:53.472Z,20.52
2022-11-15T10:22:34.980Z,20.45
2022-11-15T10:25:22.234Z,20.40
2022-11-15T10:27:58.974Z,20.32
2022-11-15T10:30:33.125Z,20.37
2022-11-15T10:33:12.875Z,20.16
2022-11-15T10:35:39.709Z,20.09
2022-11-15T10:38:11.866Z,20.10
2022-11-15T10:40:40.792Z,20.10
2022-11-15T10:43:10.109Z,20.27
2022-11-15T10:45:37.932Z,20.47
2022-11-15T10:48:13.514Z,20.58
2022-11-15T10:50:43.230Z,20.51
2022-11-15T10:53:18.775Z,20.45
2022-11-15T10:55:49.395Z,20.58
2022-11-15T10:58:31.588Z,20.88
2022-11-15T11:01:13.902Z,21.66
2022-11-15T11:03:42.366Z,22.51
2022-11-15T11:06:18.304Z,22.55
2022-11-15T11:08:55.529Z,22.33
2022-11-15T11:11:22.927Z,22.13
2022-11-15T11:13:50.183Z,21.80
2022-11-15T11:16:38.890Z,21.58
2022-11-15T11:19:19.544Z,21.46
2022-11-15T11:21:59.673Z,21.35
2022-11-15T11:25:02.081Z,20.90
2022-11-15T11:27:43.064Z,21.03
2022-11-15T11:30:12.788Z,21.06
2022-11-15T11:32:54.971Z,20.99
2022-11-15T11:35:28.264Z,20.93
2022-11-15T11:38:16.334Z,20.73
2022-11-15T11:40:56.094Z,20.46
2022-11-15T11:43:39.390Z,20.32
2022-11-15T11:46:22.127Z,20.38
2022-11-15T11:49:10.961Z,20.51
2022-11-15T11:51:53.776Z,20.54
2022-11-15T11:54:26.639Z,20.46
2022-11-15T11:56:54.963Z,20.65
2022-11-15T11:59:40.014Z,20.72
2022-11-15T12:02:18.314Z,20.84
2022-11-15T12:04:52.531Z,21.04
2022-11-15T12:07:29.038Z,21.34
2022-11-15T12:10:25.357Z,21.31
2022-11-15T12:13:03.149Z,21.32
2022-11-15T12:15:36.637Z,21.27
2022-11-15T12:18:03.728Z,21.06
2022-11-15T12:20:37.685Z,21.00
2022-11-15T12:23:20.438Z,20.85
2022-11-15T12:26:05.445Z,20.87
2022-11-15T12:29:06.481Z,20.85
2022-11-15T12:31:40.715Z,20.99
2022-11-15T12:34:44.554Z,20.95
2022-11-15T12:37:39.202Z,21.07
2022-11-15T12:40:24.553Z,21.10
2022-11-15T12:43:09.412Z,21.00
2022-11-15T12:45:39.423Z,20.81
2022-11-15T12:48:18.310Z,20.61
2022-11-15T12:50:51.143Z,20.43
2022-11-15T12:53:23.823Z,20.36
2022-11-15T12:56:05.632Z,20.41
2022-11-15T12:58:43.889Z,20.31
2022-11-15T13:01:31.962Z,20.32
2022-11-15T13:04:14.012Z,20.45
2022-11-15T13:06:45.053Z,20.62
2022-11-15T13:09:34.632Z,20.77
2022-11-15T13:12:23.512Z,20.77
2022-11-15T13:14:52.035Z,20.67
2022-11-15T13:17:31.175Z,20.74
2022-11-15T13:20:11.419Z,20.72
2022-11-15T13:22:55.281Z,20.81
2022-11-15T13:25:24.956Z,20.80
2022-11-15T13:27:52.197Z,20.74
2022-11-15T13:30:25.383Z,20.68
2022-11-15T13:32:53.724Z,20.62
2022-11-15T13:35:28.757Z,20.56
2022-11-15T13:37:56.918Z,20.59
2022-11-15T13:40:31.036Z,20.61
2022-11-15T13:42:59.248Z,20.55
2022-11-15T13:45:27.802Z,20.52
2022-11-15T13:47:57.060Z,20.46
2022-11-15T13:50:34.761Z,20.23
2022-11-15T13:53:05.259Z,20.22
2022-11-15T13:55:33.945Z,20.12
2022-11-15T13:58:07.318Z,20.03
2022-11-15T14:00:42.716Z,19.98
2022-11-15T14:03:21.638Z,20.05
2022-11-15T14:06:07.676Z,20.12
2022-11-15T14:08:36.460Z,20.15
2022-11-15T14:11:12.947Z,20.13
2022-11-15T14:13:39.889Z,20.08
2022-11-15T14:16:19.320Z,20.09
2022-11-15T14:18:50.343Z,20.19
2022-11-15T14:21:18.171Z,20.17
2022-11-15T14:23:45.512Z,20.12
2022-11-15T14:26:28.179Z,20.00
2022-11-15T14:28:54.888Z,19.96
2022-11-15T14:31:21.996Z,19.88
2022-11-15T14:33:49.376Z,19.83
2022-11-15T14:36:17.404Z,19.74
2022-11-15T14:38:44.814Z,19.60
2022-11-15T14:41:19.273Z,19.56
2022-11-15T14:43:45.995Z,19.52
2022-11-15T14:46:12.635Z,19.44
2022-11-15T14:48:39.285Z,19.30
2022-11-15T14:51:14.644Z,19.17
2022-11-15T14:53:43.524Z,19.23
2022-11-15T14:56:10.928Z,19.09
2022-11-15T14:58:37.590Z,19.03
2022-11-15T15:01:13.984Z,18.92
2022-11-15T15:03:40.836Z,18.94
2022-11-15T15:06:12.367Z,18.90
2022-11-15T15:08:43.360Z,18.88
2022-11-15T15:11:39.565Z,18.83
2022-11-15T15:14:06.275Z,18.67
2022-11-15T15:16:32.987Z,18.64
2022-11-15T15:18:59.744Z,18.67
2022-11-15T15:21:33.584Z,18.58
2022-11-15T15:24:03.965Z,18.53
2022-11-15T15:26:30.791Z,18.54
2022-11-15T15:28:57.772Z,18.55
2022-11-15T15:31:24.521Z,18.56
2022-11-15T15:33:51.206Z,18.46
2022-11-15T15:36:19.462Z,18.35
2022-11-15T15:38:47.600Z,18.33
2022-11-15T15:41:15.995Z,18.37
2022-11-15T15:43:42.794Z,18.33
2022-11-15T15:46:12.982Z,18.35
2022-11-15T15:48:40.543Z,18.32
2022-11-15T15:51:15.462Z,18.24
2022-11-15T15:53:45.435Z,18.19
2022-11-15T15:56:12.218Z,18.15
2022-11-15T15:58:38.968Z,18.18
2022-11-15T16:01:05.847Z,18.16
2022-11-15T16:03:32.638Z,18.15
2022-11-15T16:05:59.573Z,18.15
2022-11-15T16:08:42.402Z,18.12
2022-11-15T16:11:10.480Z,18.14
2022-11-15T16:13:37.241Z,18.16
2022-11-15T16:16:03.989Z,18.04
2022-11-15T16:18:30.945Z,18.06
2022-11-15T16:20:58.031Z,18.05
2022-11-15T16:23:25.421Z,18.07
2022-11-15T16:25:56.376Z,18.03
2022-11-15T16:28:28.863Z,18.13
2022-11-15T16:31:11.432Z,17.91
2022-11-15T16:33:39.063Z,17.95
2022-11-15T16:36:07.653Z,17.95
2022-11-15T16:38:34.765Z,17.99
2022-11-15T16:41:02.006Z,17.97
2022-11-15T16:43:28.685Z,17.96
2022-11-15T16:45:55.365Z,17.96
2022-11-15T16:48:26.981Z,17.80
2022-11-15T16:50:58.290Z,17.85
2022-11-15T16:53:26.564Z,17.88
2022-11-15T16:55:54.555Z,17.89
2022-11-15T16:58:21.313Z,17.88
2022-11-15T17:00:56.358Z,17.92
2022-11-15T17:03:24.323Z,17.92
2022-11-15T17:05:51.600Z,17.90
2022-11-15T17:08:20.719Z,17.90
2022-11-15T17:10:47.421Z,17.92
2022-11-15T17:13:14.780Z,17.81
2022-11-15T17:15:41.536Z,17.77
2022-11-15T17:18:11.889Z,17.79
2022-11-15T17:20:40.640Z,17.78
2022-11-15T17:23:14.234Z,17.73
2022-11-15T17:25:41.324Z,17.67
2022-11-15T17:28:08.045Z,17.69
2022-11-15T17:30:35.720Z,17.63
2022-11-15T17:33:02.412Z,17.65
2022-11-15T17:35:29.098Z,17.61
2022-11-15T17:37:55.815Z,17.61
2022-11-15T17:40:22.568Z,17.58
2022-11-15T17:42:49.506Z,17.55
2022-11-15T17:45:16.303Z,17.54
2022-11-15T17:47:42.964Z,17.56
2022-11-15T17:50:10.044Z,17.55
2022-11-15T17:52:36.872Z,17.55
2022-11-15T17:55:03.775Z,17.50
2022-11-15T17:57:30.489Z,17.54
2022-11-15T17:59:57.278Z,17.54
2022-11-15T18:02:23.922Z,17.48
2022-11-15T18:04:50.593Z,17.39
2022-11-15T18:07:17.360Z,17.44
2022-11-15T18:09:44.378Z,17.39
2022-11-15T18:12:12.082Z,17.40
2022-11-15T18:14:39.275Z,17.42
2022-11-15T18:17:06.323Z,17.33
2022-11-15T18:19:33.562Z,17.27
2022-11-15T18:22:01.868Z,17.30
2022-11-15T18:24:30.785Z,17.32
2022-11-15T18:26:59.120Z,17.31
2022-11-15T18:29:25.905Z,17.34
2022-11-15T18:31:56.161Z,17.32
2022-11-15T18:34:25.522Z,17.28
2022-11-15T18:36:53.312Z,17.29
2022-11-15T18:39:20.370Z,17.25
2022-11-15T18:41:47.955Z,17.24
2022-11-15T18:44:15.530Z,17.20
2022-11-15T18:46:44.901Z,17.18
2022-11-15T18:49:13.713Z,17.19
2022-11-15T18:51:43.748Z,17.14
2022-11-15T18:54:12.449Z,17.06
2022-11-15T18:56:40.110Z,17.18
2022-11-15T18:59:08.253Z,17.18
2022-11-15T19:01:37.530Z,17.22
2022-11-15T19:04:24.529Z,17.25
2022-11-15T19:06:51.703Z,17.31
2022-11-15T19:09:19.482Z,17.18
2022-11-15T19:11:48.220Z,17.14
2022-11-15T19:14:16.918Z,17.13
2022-11-15T19:16:46.186Z,17.10
2022-11-15T19:19:15.647Z,17.13
2022-11-15T19:21:44.285Z,17.11
2022-11-15T19:24:11.366Z,17.06
2022-11-15T19:26:38.848Z,17.07
2022-11-15T19:29:07.584Z,17.06
2022-11-15T19:31:34.711Z,17.07
2022-11-15T19:34:04.444Z,17.06
2022-11-15T19:36:35.329Z,17.05
2022-11-15T19:39:05.553Z,17.02
2022-11-15T19:41:32.535Z,17.05
2022-11-15T19:43:59.332Z,17.04
2022-11-15T19:46:26.927Z,17.05
2022-11-15T19:48:54.344Z,17.01
2022-11-15T19:51:24.509Z,16.99
2022-11-15T19:53:57.965Z,16.98
2022-11-15T19:56:24.998Z,17.05
2022-11-15T19:58:53.888Z,17.02
2022-11-15T20:01:23.456Z,17.02
2022-11-15T20:03:53.964Z,17.00
2022-11-15T20:06:23.905Z,16.96
2022-11-15T20:08:50.839Z,17.05
2022-11-15T20:11:18.438Z,16.95
2022-11-15T20:13:45.346Z,16.99
2022-11-15T20:16:17.864Z,17.00
2022-11-15T20:18:45.347Z,16.96
2022-11-15T20:21:12.461Z,17.01
2022-11-15T20:23:39.416Z,17.03
2022-11-15T20:26:07.358Z,17.03
2022-11-15T20:28:36.671Z,17.04
2022-11-15T20:31:04.156Z,17.04
2022-11-15T20:33:30.836Z,17.01
2022-11-15T20:35:57.616Z,16.97
2022-11-15T20:38:24.590Z,17.00
2022-11-15T20:40:54.794Z,17.04
2022-11-15T20:43:24.237Z,17.12
2022-11-15T20:45:50.900Z,17.12
2022-11-15T20:48:18.069Z,17.05
2022-11-15T20:50:47.021Z,17.04
2022-11-15T20:53:17.232Z,17.06
2022-11-15T20:55:49.360Z,17.16
2022-11-15T20:58:16.989Z,17.15
2022-11-15T21:00:45.337Z,17.16
2022-11-15T21:03:14.127Z,17.07
2022-11-15T21:05:43.817Z,17.11
2022-11-15T21:08:12.445Z,17.00
2022-11-15T21:10:59.337Z,16.97
2022-11-15T21:13:26.801Z,17.00
2022-11-15T21:15:57.728Z,17.00
2022-11-15T21:18:25.206Z,16.99
2022-11-15T21:20:53.647Z,16.93
2022-11-15T21:23:20.954Z,16.91
2022-11-15T21:25:52.417Z,16.90
2022-11-15T21:28:19.248Z,16.89
2022-11-15T21:31:12.331Z,16.89
2022-11-15T21:33:39.060Z,16.92
2022-11-15T21:36:05.979Z,16.93
2022-11-15T21:38:32.905Z,16.94
2022-11-15T21:41:03.030Z,16.92
2022-11-15T21:43:29.671Z,16.94
2022-11-15T21:46:00.013Z,16.92
2022-11-15T21:48:28.639Z,16.94
2022-11-15T21:51:03.267Z,16.93
2022-11-15T21:53:31.455Z,16.87
2022-11-15T21:55:58.903Z,16.87
2022-11-15T21:58:25.715Z,16.80
2022-11-15T22:01:13.104Z,16.73
2022-11-15T22:03:40.368Z,16.78
2022-11-15T22:06:07.188Z,16.74
2022-11-15T22:08:34.073Z,16.83
2022-11-15T22:11:02.336Z,16.85
2022-11-15T22:13:28.964Z,16.87
2022-11-15T22:15:56.329Z,16.79
2022-11-15T22:18:27.335Z,16.71
2022-11-15T22:21:03.332Z,16.73
2022-11-15T22:23:31.828Z,16.73
2022-11-15T22:25:58.884Z,16.73
2022-11-15T22:28:26.037Z,16.79
2022-11-15T22:30:54.783Z,16.82
2022-11-15T22:33:27.438Z,16.86
2022-11-15T22:35:54.949Z,16.84
2022-11-15T22:38:21.806Z,16.72
2022-11-15T22:40:48.636Z,16.78
2022-11-15T22:43:18.654Z,16.76
2022-11-15T22:45:51.654Z,16.75
2022-11-15T22:48:21.110Z,16.74
2022-11-15T22:50:48.176Z,16.67
2022-11-15T22:53:14.933Z,16.62
2022-11-15T22:55:42.091Z,16.60
2022-11-15T22:58:09.236Z,16.60
2022-11-15T23:00:37.261Z,16.57
2022-11-15T23:03:04.207Z,16.57
2022-11-15T23:05:30.955Z,16.59
2022-11-15T23:07:57.833Z,16.53
2022-11-15T23:10:42.896Z,16.57
2022-11-15T23:13:16.737Z,16.64
2022-11-15T23:16:08.540Z,16.55
2022-11-15T23:18:41.695Z,16.55
2022-11-15T23:21:13.288Z,16.56
2022-11-15T23:23:40.725Z,16.52
2022-11-15T23:26:09.023Z,16.51
2022-11-15T23:28:36.065Z,16.51
2022-11-15T23:31:26.378Z,16.50
2022-11-15T23:33:58.929Z,16.53
2022-11-15T23:36:27.406Z,16.51
2022-11-15T23:38:54.732Z,16.39
2022-11-15T23:41:23.698Z,16.33
2022-11-15T23:43:51.485Z,16.43
2022-11-15T23:46:18.241Z,16.35
2022-11-15T23:48:45.007Z,16.36
2022-11-15T23:51:11.754Z,16.37
2022-11-15T23:53:38.518Z,16.28
2022-11-15T23:56:09.433Z,16.34
2022-11-15T23:58:36.615Z,16.30
